sensor_id;sensor_type;location;lat;lon;timestamp;temperature;humidity
27795;DHT22;15176;50.844;4.412;2023-02-01T00:01:45;9.90;99.90
27795;DHT22;15176;50.844;4.412;2023-02-01T00:04:12;9.80;99.90
27795;DHT22;15176;50.844;4.412;2023-02-01T00:06:37;9.70;99.90
27795;DHT22;15176;50.844;4.412;2023-02-01T00:09:03;9.70;99.90
27795;DHT22;15176;50.844;4.412;2023-02-01T00:11:30;9.50;99.90
27795;DHT22;15176;50.844;4.412;2023-02-01T00:13:56;9.40;99.90
27795;DHT22;15176;50.844;4.412;2023-02-01T00:16:25;9.30;99.90
27795;DHT22;15176;50.844;4.412;2023-02-01T00:18:52;9.20;99.90
27795;DHT22;15176;50.844;4.412;2023-02-01T00:21:21;9.30;99.90
27795;DHT22;15176;50.844;4.412;2023-02-01T00:23:47;9.40;99.90
27795;DHT22;15176;50.844;4.412;2023-02-01T00:26:40;9.20;99.90
27795;DHT22;15176;50.844;4.412;2023-02-01T00:29:16;9.10;99.90
27795;DHT22;15176;50.844;4.412;2023-02-01T00:31:44;9.30;99.90
27795;DHT22;15176;50.844;4.412;2023-02-01T00:34:15;9.30;99.90
27795;DHT22;15176;50.844;4.412;2023-02-01T00:36:42;9.00;99.90
27795;DHT22;15176;50.844;4.412;2023-02-01T00:39:08;9.10;99.90
27795;DHT22;15176;50.844;4.412;2023-02-01T00:41:34;9.20;99.90
27795;DHT22;15176;50.844;4.412;2023-02-01T00:44:00;9.50;99.90
27795;DHT22;15176;50.844;4.412;2023-02-01T00:46:26;9.40;99.90
27795;DHT22;15176;50.844;4.412;2023-02-01T00:48:52;9.20;99.90
27795;DHT22;15176;50.844;4.412;2023-02-01T00:51:21;9.40;99.90
27795;DHT22;15176;50.844;4.412;2023-02-01T00:53:47;9.20;99.90
27795;DHT22;15176;50.844;4.412;2023-02-01T00:56:16;9.50;99.90
27795;DHT22;15176;50.844;4.412;2023-02-01T00:58:42;9.50;99.90
27795;DHT22;15176;50.844;4.412;2023-02-01T01:01:17;9.50;99.90
27795;DHT22;15176;50.844;4.412;2023-02-01T01:03:45;9.50;99.90
27795;DHT22;15176;50.844;4.412;2023-02-01T01:06:14;9.20;99.90
27795;DHT22;15176;50.844;4.412;2023-02-01T01:08:41;9.10;99.90
27795;DHT22;15176;50.844;4.412;2023-02-01T01:11:07;8.90;99.90
27795;DHT22;15176;50.844;4.412;2023-02-01T01:13:34;8.90;99.90
27795;DHT22;15176;50.844;4.412;2023-02-01T01:16:01;8.60;99.90
27795;DHT22;15176;50.844;4.412;2023-02-01T01:18:29;8.70;99.90
27795;DHT22;15176;50.844;4.412;2023-02-01T01:20:55;8.90;99.90
27795;DHT22;15176;50.844;4.412;2023-02-01T01:23:21;8.90;99.90
27795;DHT22;15176;50.844;4.412;2023-02-01T01:25:47;8.90;99.90
27795;DHT22;15176;50.844;4.412;2023-02-01T01:28:12;8.80;99.90
27795;DHT22;15176;50.844;4.412;2023-02-01T01:30:38;8.90;99.90
27795;DHT22;15176;50.844;4.412;2023-02-01T01:33:07;8.80;99.90
27795;DHT22;15176;50.844;4.412;2023-02-01T01:35:34;8.60;99.90
27795;DHT22;15176;50.844;4.412;2023-02-01T01:38:00;8.60;99.90
27795;DHT22;15176;50.844;4.412;2023-02-01T01:40:27;8.60;99.90
27795;DHT22;15176;50.844;4.412;2023-02-01T01:42:53;8.70;99.90
27795;DHT22;15176;50.844;4.412;2023-02-01T01:45:33;8.70;99.90
27795;DHT22;15176;50.844;4.412;2023-02-01T01:48:07;8.40;99.90
27795;DHT22;15176;50.844;4.412;2023-02-01T01:50:39;8.40;99.90
27795;DHT22;15176;50.844;4.412;2023-02-01T01:53:08;8.50;99.90
27795;DHT22;15176;50.844;4.412;2023-02-01T01:55:38;8.50;99.90
27795;DHT22;15176;50.844;4.412;2023-02-01T01:58:12;8.40;99.90
27795;DHT22;15176;50.844;4.412;2023-02-01T02:00:39;8.40;99.90
27795;DHT22;15176;50.844;4.412;2023-02-01T02:03:19;8.50;99.90
27795;DHT22;15176;50.844;4.412;2023-02-01T02:05:49;8.60;99.90
27795;DHT22;15176;50.844;4.412;2023-02-01T02:08:16;8.70;99.90
27795;DHT22;15176;50.844;4.412;2023-02-01T02:10:43;8.60;99.90
27795;DHT22;15176;50.844;4.412;2023-02-01T02:13:36;8.60;99.90
27795;DHT22;15176;50.844;4.412;2023-02-01T02:21:23;8.80;99.90
27795;DHT22;15176;50.844;4.412;2023-02-01T02:34:50;8.30;99.90
27795;DHT22;15176;50.844;4.412;2023-02-01T02:43:05;8.60;99.90
27795;DHT22;15176;50.844;4.412;2023-02-01T02:46:06;8.60;99.90
27795;DHT22;15176;50.844;4.412;2023-02-01T02:52:04;8.70;99.90
27795;DHT22;15176;50.844;4.412;2023-02-01T02:54:50;8.80;99.90
27795;DHT22;15176;50.844;4.412;2023-02-01T02:57:37;8.90;99.90
27795;DHT22;15176;50.844;4.412;2023-02-01T03:00:24;8.70;99.90
27795;DHT22;15176;50.844;4.412;2023-02-01T03:03:09;8.60;99.90
27795;DHT22;15176;50.844;4.412;2023-02-01T03:05:53;8.50;99.90
27795;DHT22;15176;50.844;4.412;2023-02-01T03:08:26;8.40;99.90
27795;DHT22;15176;50.844;4.412;2023-02-01T03:11:05;8.30;99.90
27795;DHT22;15176;50.844;4.412;2023-02-01T03:16:14;8.20;99.90
27795;DHT22;15176;50.844;4.412;2023-02-01T03:19:03;8.10;99.90
27795;DHT22;15176;50.844;4.412;2023-02-01T03:21:36;8.10;99.90
27795;DHT22;15176;50.844;4.412;2023-02-01T03:24:07;8.10;99.90
27795;DHT22;15176;50.844;4.412;2023-02-01T03:26:37;8.10;99.90
27795;DHT22;15176;50.844;4.412;2023-02-01T03:29:13;8.30;99.90
27795;DHT22;15176;50.844;4.412;2023-02-01T03:31:41;8.10;99.90
27795;DHT22;15176;50.844;4.412;2023-02-01T03:34:06;7.90;99.90
27795;DHT22;15176;50.844;4.412;2023-02-01T03:36:37;7.90;99.90
27795;DHT22;15176;50.844;4.412;2023-02-01T03:41:59;8.20;99.90
27795;DHT22;15176;50.844;4.412;2023-02-01T03:44:38;8.10;99.90
27795;DHT22;15176;50.844;4.412;2023-02-01T03:47:25;8.10;99.90
27795;DHT22;15176;50.844;4.412;2023-02-01T03:50:07;8.00;99.90
27795;DHT22;15176;50.844;4.412;2023-02-01T03:52:44;7.90;99.90
27795;DHT22;15176;50.844;4.412;2023-02-01T03:55:13;8.00;99.90
27795;DHT22;15176;50.844;4.412;2023-02-01T03:57:49;8.00;99.90
27795;DHT22;15176;50.844;4.412;2023-02-01T04:00:20;8.00;99.90
27795;DHT22;15176;50.844;4.412;2023-02-01T04:02:47;7.90;99.90
27795;DHT22;15176;50.844;4.412;2023-02-01T04:05:14;8.10;99.90
27795;DHT22;15176;50.844;4.412;2023-02-01T04:07:41;7.90;99.90
27795;DHT22;15176;50.844;4.412;2023-02-01T04:10:07;8.00;99.90
27795;DHT22;15176;50.844;4.412;2023-02-01T04:12:33;7.90;99.90
27795;DHT22;15176;50.844;4.412;2023-02-01T04:14:59;7.70;99.90
27795;DHT22;15176;50.844;4.412;2023-02-01T04:17:24;7.70;99.90
27795;DHT22;15176;50.844;4.412;2023-02-01T04:19:50;7.80;99.90
27795;DHT22;15176;50.844;4.412;2023-02-01T04:22:16;8.00;99.90
27795;DHT22;15176;50.844;4.412;2023-02-01T04:24:42;7.80;99.90
27795;DHT22;15176;50.844;4.412;2023-02-01T04:27:07;7.80;99.90
27795;DHT22;15176;50.844;4.412;2023-02-01T04:29:33;7.80;99.90
27795;DHT22;15176;50.844;4.412;2023-02-01T04:31:59;7.80;99.90
27795;DHT22;15176;50.844;4.412;2023-02-01T04:34:25;7.80;99.90
27795;DHT22;15176;50.844;4.412;2023-02-01T04:36:51;7.80;99.90
27795;DHT22;15176;50.844;4.412;2023-02-01T04:39:17;7.70;99.90
27795;DHT22;15176;50.844;4.412;2023-02-01T04:41:43;7.40;99.90
27795;DHT22;15176;50.844;4.412;2023-02-01T04:44:27;7.20;99.90
27795;DHT22;15176;50.844;4.412;2023-02-01T04:46:53;7.20;99.90
27795;DHT22;15176;50.844;4.412;2023-02-01T04:49:19;7.20;99.90
27795;DHT22;15176;50.844;4.412;2023-02-01T04:51:48;7.30;99.90
27795;DHT22;15176;50.844;4.412;2023-02-01T04:54:13;7.40;99.90
27795;DHT22;15176;50.844;4.412;2023-02-01T04:56:39;7.50;99.90
27795;DHT22;15176;50.844;4.412;2023-02-01T04:59:06;7.40;99.90
27795;DHT22;15176;50.844;4.412;2023-02-01T05:01:32;7.30;99.90
27795;DHT22;15176;50.844;4.412;2023-02-01T05:03:58;7.20;99.90
27795;DHT22;15176;50.844;4.412;2023-02-01T05:06:24;7.30;99.90
27795;DHT22;15176;50.844;4.412;2023-02-01T05:08:49;7.30;99.90
27795;DHT22;15176;50.844;4.412;2023-02-01T05:11:15;7.30;99.90
27795;DHT22;15176;50.844;4.412;2023-02-01T05:14:00;7.40;99.90
27795;DHT22;15176;50.844;4.412;2023-02-01T05:16:26;7.30;99.90
27795;DHT22;15176;50.844;4.412;2023-02-01T05:18:52;7.20;99.90
27795;DHT22;15176;50.844;4.412;2023-02-01T05:21:18;7.20;99.90
27795;DHT22;15176;50.844;4.412;2023-02-01T05:23:44;7.10;99.90
27795;DHT22;15176;50.844;4.412;2023-02-01T05:26:28;6.90;99.90
27795;DHT22;15176;50.844;4.412;2023-02-01T05:28:54;7.00;99.90
27795;DHT22;15176;50.844;4.412;2023-02-01T05:31:20;7.00;99.90
27795;DHT22;15176;50.844;4.412;2023-02-01T05:33:46;7.00;99.90
27795;DHT22;15176;50.844;4.412;2023-02-01T05:36:12;7.10;99.90
27795;DHT22;15176;50.844;4.412;2023-02-01T05:38:37;7.00;99.90
27795;DHT22;15176;50.844;4.412;2023-02-01T05:41:03;6.90;99.90
27795;DHT22;15176;50.844;4.412;2023-02-01T05:43:29;6.90;99.90
27795;DHT22;15176;50.844;4.412;2023-02-01T05:45:54;6.90;99.90
27795;DHT22;15176;50.844;4.412;2023-02-01T05:48:20;6.70;99.90
27795;DHT22;15176;50.844;4.412;2023-02-01T05:50:46;6.80;99.90
27795;DHT22;15176;50.844;4.412;2023-02-01T05:53:12;7.00;99.90
27795;DHT22;15176;50.844;4.412;2023-02-01T05:55:38;6.80;99.90
27795;DHT22;15176;50.844;4.412;2023-02-01T05:58:05;6.60;99.90
27795;DHT22;15176;50.844;4.412;2023-02-01T06:00:31;6.50;99.90
27795;DHT22;15176;50.844;4.412;2023-02-01T06:02:57;6.50;99.90
27795;DHT22;15176;50.844;4.412;2023-02-01T06:05:23;6.50;99.90
27795;DHT22;15176;50.844;4.412;2023-02-01T06:07:49;6.60;99.90
27795;DHT22;15176;50.844;4.412;2023-02-01T06:10:18;6.70;99.90
27795;DHT22;15176;50.844;4.412;2023-02-01T06:12:44;6.60;99.90
27795;DHT22;15176;50.844;4.412;2023-02-01T06:15:14;6.60;99.90
27795;DHT22;15176;50.844;4.412;2023-02-01T06:17:44;6.60;99.90
27795;DHT22;15176;50.844;4.412;2023-02-01T06:20:12;6.60;99.90
27795;DHT22;15176;50.844;4.412;2023-02-01T06:22:39;6.50;99.90
27795;DHT22;15176;50.844;4.412;2023-02-01T06:25:06;6.60;99.90
27795;DHT22;15176;50.844;4.412;2023-02-01T06:27:32;6.60;99.90
27795;DHT22;15176;50.844;4.412;2023-02-01T06:29:58;6.70;99.90
27795;DHT22;15176;50.844;4.412;2023-02-01T06:32:25;6.60;99.90
27795;DHT22;15176;50.844;4.412;2023-02-01T06:34:51;6.60;99.90
27795;DHT22;15176;50.844;4.412;2023-02-01T06:37:22;6.70;99.90
27795;DHT22;15176;50.844;4.412;2023-02-01T06:39:48;6.50;99.90
27795;DHT22;15176;50.844;4.412;2023-02-01T06:42:14;6.60;99.90
27795;DHT22;15176;50.844;4.412;2023-02-01T06:44:40;6.50;99.90
27795;DHT22;15176;50.844;4.412;2023-02-01T06:47:06;6.60;99.90
27795;DHT22;15176;50.844;4.412;2023-02-01T06:49:32;6.70;99.90
27795;DHT22;15176;50.844;4.412;2023-02-01T06:51:58;6.90;99.90
27795;DHT22;15176;50.844;4.412;2023-02-01T06:54:27;6.90;99.90
27795;DHT22;15176;50.844;4.412;2023-02-01T06:56:53;6.90;99.90
27795;DHT22;15176;50.844;4.412;2023-02-01T06:59:23;6.80;99.90
27795;DHT22;15176;50.844;4.412;2023-02-01T07:01:51;6.80;99.90
27795;DHT22;15176;50.844;4.412;2023-02-01T07:04:16;6.90;99.90
27795;DHT22;15176;50.844;4.412;2023-02-01T07:06:42;6.90;99.90
27795;DHT22;15176;50.844;4.412;2023-02-01T07:09:08;6.80;99.90
27795;DHT22;15176;50.844;4.412;2023-02-01T07:11:34;6.80;99.90
27795;DHT22;15176;50.844;4.412;2023-02-01T07:14:00;7.00;99.90
27795;DHT22;15176;50.844;4.412;2023-02-01T07:16:26;6.80;99.90
27795;DHT22;15176;50.844;4.412;2023-02-01T07:18:52;6.80;99.90
27795;DHT22;15176;50.844;4.412;2023-02-01T07:21:18;6.60;99.90
27795;DHT22;15176;50.844;4.412;2023-02-01T07:23:44;6.80;99.90
27795;DHT22;15176;50.844;4.412;2023-02-01T07:26:12;6.90;99.90
27795;DHT22;15176;50.844;4.412;2023-02-01T07:28:40;7.00;99.90
27795;DHT22;15176;50.844;4.412;2023-02-01T07:31:17;6.90;99.90
27795;DHT22;15176;50.844;4.412;2023-02-01T07:33:50;7.10;99.90
27795;DHT22;15176;50.844;4.412;2023-02-01T07:36:20;7.00;99.90
27795;DHT22;15176;50.844;4.412;2023-02-01T07:38:46;7.10;99.90
27795;DHT22;15176;50.844;4.412;2023-02-01T07:41:17;7.50;99.90
27795;DHT22;15176;50.844;4.412;2023-02-01T07:43:43;7.50;99.90
27795;DHT22;15176;50.844;4.412;2023-02-01T07:46:10;7.30;99.90
27795;DHT22;15176;50.844;4.412;2023-02-01T07:48:37;7.40;99.90
27795;DHT22;15176;50.844;4.412;2023-02-01T07:51:12;7.30;99.90
27795;DHT22;15176;50.844;4.412;2023-02-01T07:53:38;7.40;99.90
27795;DHT22;15176;50.844;4.412;2023-02-01T07:56:08;7.40;99.90
27795;DHT22;15176;50.844;4.412;2023-02-01T07:58:35;7.50;99.90
27795;DHT22;15176;50.844;4.412;2023-02-01T08:01:03;7.40;99.90
27795;DHT22;15176;50.844;4.412;2023-02-01T08:03:58;7.50;99.90
27795;DHT22;15176;50.844;4.412;2023-02-01T08:06:27;7.60;99.90
27795;DHT22;15176;50.844;4.412;2023-02-01T08:08:53;7.70;99.90
27795;DHT22;15176;50.844;4.412;2023-02-01T08:11:20;7.40;99.90
27795;DHT22;15176;50.844;4.412;2023-02-01T08:13:46;7.50;99.90
27795;DHT22;15176;50.844;4.412;2023-02-01T08:16:15;7.50;99.90
27795;DHT22;15176;50.844;4.412;2023-02-01T08:18:41;7.70;99.90
27795;DHT22;15176;50.844;4.412;2023-02-01T08:21:10;7.90;99.90
27795;DHT22;15176;50.844;4.412;2023-02-01T08:23:38;7.80;99.90
27795;DHT22;15176;50.844;4.412;2023-02-01T08:28:33;7.90;99.90
27795;DHT22;15176;50.844;4.412;2023-02-01T08:31:02;7.70;99.90
27795;DHT22;15176;50.844;4.412;2023-02-01T08:33:28;7.60;99.90
27795;DHT22;15176;50.844;4.412;2023-02-01T08:35:54;7.70;99.90
27795;DHT22;15176;50.844;4.412;2023-02-01T08:38:20;7.60;99.90
27795;DHT22;15176;50.844;4.412;2023-02-01T08:40:46;7.50;99.90
27795;DHT22;15176;50.844;4.412;2023-02-01T08:43:12;7.50;99.90
27795;DHT22;15176;50.844;4.412;2023-02-01T08:45:39;7.50;99.90
27795;DHT22;15176;50.844;4.412;2023-02-01T08:48:05;7.70;99.90
27795;DHT22;15176;50.844;4.412;2023-02-01T08:50:31;7.70;99.90
27795;DHT22;15176;50.844;4.412;2023-02-01T08:52:57;7.80;99.90
27795;DHT22;15176;50.844;4.412;2023-02-01T08:55:23;7.90;99.90
27795;DHT22;15176;50.844;4.412;2023-02-01T08:57:48;8.20;99.90
27795;DHT22;15176;50.844;4.412;2023-02-01T09:00:16;8.20;99.90
27795;DHT22;15176;50.844;4.412;2023-02-01T09:02:42;8.30;99.90
27795;DHT22;15176;50.844;4.412;2023-02-01T09:05:08;8.10;99.90
27795;DHT22;15176;50.844;4.412;2023-02-01T09:07:36;8.10;99.90
27795;DHT22;15176;50.844;4.412;2023-02-01T09:10:03;8.40;99.90
27795;DHT22;15176;50.844;4.412;2023-02-01T09:12:30;8.30;99.90
27795;DHT22;15176;50.844;4.412;2023-02-01T09:15:00;8.50;99.90
27795;DHT22;15176;50.844;4.412;2023-02-01T09:17:26;8.50;99.90
27795;DHT22;15176;50.844;4.412;2023-02-01T09:19:52;8.60;99.90
27795;DHT22;15176;50.844;4.412;2023-02-01T09:22:19;8.60;99.90
27795;DHT22;15176;50.844;4.412;2023-02-01T09:24:45;8.80;99.90
27795;DHT22;15176;50.844;4.412;2023-02-01T09:27:11;8.60;99.90
27795;DHT22;15176;50.844;4.412;2023-02-01T09:29:36;9.00;99.90
27795;DHT22;15176;50.844;4.412;2023-02-01T09:32:04;9.70;99.90
27795;DHT22;15176;50.844;4.412;2023-02-01T09:34:32;10.00;99.90
27795;DHT22;15176;50.844;4.412;2023-02-01T09:36:58;9.80;99.90
27795;DHT22;15176;50.844;4.412;2023-02-01T09:39:24;10.20;99.90
27795;DHT22;15176;50.844;4.412;2023-02-01T09:47:48;11.30;99.90
27795;DHT22;15176;50.844;4.412;2023-02-01T09:50:19;11.90;99.90
27795;DHT22;15176;50.844;4.412;2023-02-01T09:53:05;12.40;99.90
27795;DHT22;15176;50.844;4.412;2023-02-01T09:55:50;11.90;99.90
27795;DHT22;15176;50.844;4.412;2023-02-01T09:58:20;12.40;99.90
27795;DHT22;15176;50.844;4.412;2023-02-01T10:00:53;13.10;99.90
27795;DHT22;15176;50.844;4.412;2023-02-01T10:03:19;13.20;99.90
27795;DHT22;15176;50.844;4.412;2023-02-01T10:11:29;14.60;99.90
27795;DHT22;15176;50.844;4.412;2023-02-01T10:17:11;14.60;99.90
27795;DHT22;15176;50.844;4.412;2023-02-01T10:25:55;15.10;99.90
27795;DHT22;15176;50.844;4.412;2023-02-01T10:28:22;14.80;99.90
27795;DHT22;15176;50.844;4.412;2023-02-01T10:30:54;14.80;99.90
27795;DHT22;15176;50.844;4.412;2023-02-01T10:33:23;15.10;99.90
27795;DHT22;15176;50.844;4.412;2023-02-01T10:38:37;15.60;99.40
27795;DHT22;15176;50.844;4.412;2023-02-01T10:41:20;15.50;99.90
27795;DHT22;15176;50.844;4.412;2023-02-01T10:43:57;15.50;99.00
27795;DHT22;15176;50.844;4.412;2023-02-01T10:46:24;15.10;99.50
27795;DHT22;15176;50.844;4.412;2023-02-01T10:48:53;15.10;99.80
27795;DHT22;15176;50.844;4.412;2023-02-01T10:51:33;15.70;97.80
27795;DHT22;15176;50.844;4.412;2023-02-01T10:54:14;15.80;97.90
27795;DHT22;15176;50.844;4.412;2023-02-01T10:56:43;15.90;97.40
27795;DHT22;15176;50.844;4.412;2023-02-01T10:59:20;15.80;96.40
27795;DHT22;15176;50.844;4.412;2023-02-01T11:01:51;14.90;97.70
27795;DHT22;15176;50.844;4.412;2023-02-01T11:04:33;15.10;98.70
27795;DHT22;15176;50.844;4.412;2023-02-01T11:07:27;15.10;97.90
27795;DHT22;15176;50.844;4.412;2023-02-01T11:09:55;14.80;98.90
27795;DHT22;15176;50.844;4.412;2023-02-01T11:12:35;14.90;98.20
27795;DHT22;15176;50.844;4.412;2023-02-01T11:15:22;14.80;98.40
27795;DHT22;15176;50.844;4.412;2023-02-01T11:17:50;13.50;99.90
27795;DHT22;15176;50.844;4.412;2023-02-01T11:22:58;13.40;99.90
27795;DHT22;15176;50.844;4.412;2023-02-01T11:25:25;13.40;99.90
27795;DHT22;15176;50.844;4.412;2023-02-01T11:27:53;13.60;99.90
27795;DHT22;15176;50.844;4.412;2023-02-01T11:30:36;13.60;99.90
27795;DHT22;15176;50.844;4.412;2023-02-01T11:33:05;13.90;99.90
27795;DHT22;15176;50.844;4.412;2023-02-01T11:35:32;14.10;99.90
27795;DHT22;15176;50.844;4.412;2023-02-01T11:38:00;13.90;99.90
27795;DHT22;15176;50.844;4.412;2023-02-01T11:40:29;13.80;99.90
27795;DHT22;15176;50.844;4.412;2023-02-01T11:45:33;13.60;99.90
27795;DHT22;15176;50.844;4.412;2023-02-01T11:48:00;13.40;99.90
27795;DHT22;15176;50.844;4.412;2023-02-01T11:50:42;13.20;99.90
27795;DHT22;15176;50.844;4.412;2023-02-01T11:56:06;12.90;99.90
27795;DHT22;15176;50.844;4.412;2023-02-01T12:04:17;13.70;99.90
27795;DHT22;15176;50.844;4.412;2023-02-01T12:07:04;14.30;99.90
27795;DHT22;15176;50.844;4.412;2023-02-01T12:12:53;14.20;99.70
27795;DHT22;15176;50.844;4.412;2023-02-01T12:15:34;13.80;99.90
27795;DHT22;15176;50.844;4.412;2023-02-01T12:21:06;13.20;99.90
27795;DHT22;15176;50.844;4.412;2023-02-01T12:29:24;14.70;97.20
27795;DHT22;15176;50.844;4.412;2023-02-01T12:40:11;15.80;95.00
27795;DHT22;15176;50.844;4.412;2023-02-01T12:42:56;15.30;94.00
27795;DHT22;15176;50.844;4.412;2023-02-01T12:45:42;15.40;94.00
27795;DHT22;15176;50.844;4.412;2023-02-01T12:51:25;14.60;94.60
27795;DHT22;15176;50.844;4.412;2023-02-01T12:56:34;14.50;94.50
27795;DHT22;15176;50.844;4.412;2023-02-01T12:59:05;14.50;94.90
27795;DHT22;15176;50.844;4.412;2023-02-01T13:04:16;15.10;94.40
27795;DHT22;15176;50.844;4.412;2023-02-01T13:06:51;15.20;93.00
27795;DHT22;15176;50.844;4.412;2023-02-01T13:09:38;15.40;92.90
27795;DHT22;15176;50.844;4.412;2023-02-01T13:12:14;15.10;92.90
27795;DHT22;15176;50.844;4.412;2023-02-01T13:14:52;15.40;93.30
27795;DHT22;15176;50.844;4.412;2023-02-01T13:17:28;15.80;91.60
27795;DHT22;15176;50.844;4.412;2023-02-01T13:22:38;15.70;91.30
27795;DHT22;15176;50.844;4.412;2023-02-01T13:25:13;15.40;90.70
27795;DHT22;15176;50.844;4.412;2023-02-01T13:27:43;15.50;93.70
27795;DHT22;15176;50.844;4.412;2023-02-01T13:30:17;16.20;90.30
27795;DHT22;15176;50.844;4.412;2023-02-01T13:44:27;15.20;90.60
27795;DHT22;15176;50.844;4.412;2023-02-01T13:46:58;14.30;92.70
27795;DHT22;15176;50.844;4.412;2023-02-01T13:49:28;14.00;93.70
27795;DHT22;15176;50.844;4.412;2023-02-01T13:51:57;14.50;93.90
27795;DHT22;15176;50.844;4.412;2023-02-01T13:54:32;14.70;94.60
27795;DHT22;15176;50.844;4.412;2023-02-01T13:57:00;15.30;91.60
27795;DHT22;15176;50.844;4.412;2023-02-01T14:13:27;14.30;95.00
27795;DHT22;15176;50.844;4.412;2023-02-01T14:16:12;14.70;94.00
27795;DHT22;15176;50.844;4.412;2023-02-01T14:44:44;13.20;99.30
27795;DHT22;15176;50.844;4.412;2023-02-01T14:47:27;13.00;99.30
27795;DHT22;15176;50.844;4.412;2023-02-01T14:58:44;13.50;99.90
27795;DHT22;15176;50.844;4.412;2023-02-01T15:04:16;12.90;99.90
27795;DHT22;15176;50.844;4.412;2023-02-01T15:06:56;13.00;99.90
27795;DHT22;15176;50.844;4.412;2023-02-01T15:09:54;12.60;99.90
27795;DHT22;15176;50.844;4.412;2023-02-01T15:12:27;12.60;99.90
27795;DHT22;15176;50.844;4.412;2023-02-01T15:15:15;13.00;99.90
27795;DHT22;15176;50.844;4.412;2023-02-01T15:17:55;13.00;99.90
27795;DHT22;15176;50.844;4.412;2023-02-01T15:20:30;12.80;99.90
27795;DHT22;15176;50.844;4.412;2023-02-01T15:23:02;12.90;99.90
27795;DHT22;15176;50.844;4.412;2023-02-01T15:25:38;13.20;99.90
27795;DHT22;15176;50.844;4.412;2023-02-01T15:28:04;13.00;99.90
27795;DHT22;15176;50.844;4.412;2023-02-01T15:30:33;12.60;99.90
27795;DHT22;15176;50.844;4.412;2023-02-01T15:33:17;12.80;99.90
27795;DHT22;15176;50.844;4.412;2023-02-01T15:35:52;12.70;99.90
27795;DHT22;15176;50.844;4.412;2023-02-01T15:43:28;12.40;99.90
27795;DHT22;15176;50.844;4.412;2023-02-01T15:46:00;12.40;99.90
27795;DHT22;15176;50.844;4.412;2023-02-01T15:48:29;12.50;99.90
27795;DHT22;15176;50.844;4.412;2023-02-01T15:50:56;12.50;99.90
27795;DHT22;15176;50.844;4.412;2023-02-01T15:53:24;12.30;99.90
27795;DHT22;15176;50.844;4.412;2023-02-01T15:55:55;12.20;99.90
27795;DHT22;15176;50.844;4.412;2023-02-01T15:58:22;12.70;99.90
27795;DHT22;15176;50.844;4.412;2023-02-01T16:00:50;12.30;99.90
27795;DHT22;15176;50.844;4.412;2023-02-01T16:06:46;12.50;99.90
27795;DHT22;15176;50.844;4.412;2023-02-01T16:09:14;12.40;99.90
27795;DHT22;15176;50.844;4.412;2023-02-01T16:12:00;11.90;99.90
27795;DHT22;15176;50.844;4.412;2023-02-01T16:14:27;11.90;99.90
27795;DHT22;15176;50.844;4.412;2023-02-01T16:16:55;11.90;99.90
27795;DHT22;15176;50.844;4.412;2023-02-01T16:19:21;11.80;99.90
27795;DHT22;15176;50.844;4.412;2023-02-01T16:21:49;11.70;99.90
27795;DHT22;15176;50.844;4.412;2023-02-01T16:24:15;11.80;99.90
27795;DHT22;15176;50.844;4.412;2023-02-01T16:26:41;12.00;99.90
27795;DHT22;15176;50.844;4.412;2023-02-01T16:29:06;11.90;99.90
27795;DHT22;15176;50.844;4.412;2023-02-01T16:31:36;11.50;99.90
27795;DHT22;15176;50.844;4.412;2023-02-01T16:34:02;11.80;99.90
27795;DHT22;15176;50.844;4.412;2023-02-01T16:36:28;11.70;99.90
27795;DHT22;15176;50.844;4.412;2023-02-01T16:38:55;11.80;99.90
27795;DHT22;15176;50.844;4.412;2023-02-01T16:41:22;12.10;99.90
27795;DHT22;15176;50.844;4.412;2023-02-01T16:43:50;12.10;99.90
27795;DHT22;15176;50.844;4.412;2023-02-01T16:46:22;11.90;99.90
27795;DHT22;15176;50.844;4.412;2023-02-01T16:48:56;11.20;99.90
27795;DHT22;15176;50.844;4.412;2023-02-01T16:51:24;11.60;99.90
27795;DHT22;15176;50.844;4.412;2023-02-01T16:53:51;12.00;99.90
27795;DHT22;15176;50.844;4.412;2023-02-01T16:56:20;11.80;99.90
27795;DHT22;15176;50.844;4.412;2023-02-01T16:58:46;11.70;99.90
27795;DHT22;15176;50.844;4.412;2023-02-01T17:01:14;11.30;99.90
27795;DHT22;15176;50.844;4.412;2023-02-01T17:03:41;11.20;99.90
27795;DHT22;15176;50.844;4.412;2023-02-01T17:06:08;11.50;99.90
27795;DHT22;15176;50.844;4.412;2023-02-01T17:08:40;11.50;99.90
27795;DHT22;15176;50.844;4.412;2023-02-01T17:11:07;11.40;99.90
27795;DHT22;15176;50.844;4.412;2023-02-01T17:13:33;11.50;99.90
27795;DHT22;15176;50.844;4.412;2023-02-01T17:19:25;11.70;99.90
27795;DHT22;15176;50.844;4.412;2023-02-01T17:21:49;11.90;99.90
27795;DHT22;15176;50.844;4.412;2023-02-01T17:24:19;11.90;99.90
27795;DHT22;15176;50.844;4.412;2023-02-01T17:26:45;12.10;99.90
27795;DHT22;15176;50.844;4.412;2023-02-01T17:29:11;12.00;99.90
27795;DHT22;15176;50.844;4.412;2023-02-01T17:31:39;11.60;99.90
27795;DHT22;15176;50.844;4.412;2023-02-01T17:34:07;11.50;99.90
27795;DHT22;15176;50.844;4.412;2023-02-01T17:36:33;11.40;99.90
27795;DHT22;15176;50.844;4.412;2023-02-01T17:39:01;11.00;99.90
27795;DHT22;15176;50.844;4.412;2023-02-01T17:41:27;11.00;99.90
27795;DHT22;15176;50.844;4.412;2023-02-01T17:43:56;10.90;99.90
27795;DHT22;15176;50.844;4.412;2023-02-01T17:46:22;10.70;99.90
27795;DHT22;15176;50.844;4.412;2023-02-01T17:48:52;10.70;99.90
27795;DHT22;15176;50.844;4.412;2023-02-01T17:51:24;10.80;99.90
27795;DHT22;15176;50.844;4.412;2023-02-01T17:53:51;10.70;99.90
27795;DHT22;15176;50.844;4.412;2023-02-01T17:56:20;10.90;99.90
27795;DHT22;15176;50.844;4.412;2023-02-01T17:58:47;10.70;99.90
27795;DHT22;15176;50.844;4.412;2023-02-01T18:01:15;10.70;99.90
27795;DHT22;15176;50.844;4.412;2023-02-01T18:03:42;10.80;99.90
27795;DHT22;15176;50.844;4.412;2023-02-01T18:06:23;10.70;99.90
27795;DHT22;15176;50.844;4.412;2023-02-01T18:08:55;10.70;99.90
27795;DHT22;15176;50.844;4.412;2023-02-01T18:11:23;10.50;99.90
27795;DHT22;15176;50.844;4.412;2023-02-01T18:13:51;10.90;99.90
27795;DHT22;15176;50.844;4.412;2023-02-01T18:16:27;11.00;99.90
27795;DHT22;15176;50.844;4.412;2023-02-01T18:18:53;11.00;99.90
27795;DHT22;15176;50.844;4.412;2023-02-01T18:21:47;10.80;99.90
27795;DHT22;15176;50.844;4.412;2023-02-01T18:24:15;10.90;99.90
27795;DHT22;15176;50.844;4.412;2023-02-01T18:26:41;11.00;99.90
27795;DHT22;15176;50.844;4.412;2023-02-01T18:29:08;11.20;99.90
27795;DHT22;15176;50.844;4.412;2023-02-01T18:31:38;10.90;99.90
27795;DHT22;15176;50.844;4.412;2023-02-01T18:34:11;10.70;99.90
27795;DHT22;15176;50.844;4.412;2023-02-01T18:36:41;10.80;99.90
27795;DHT22;15176;50.844;4.412;2023-02-01T18:39:07;10.90;99.90
27795;DHT22;15176;50.844;4.412;2023-02-01T18:41:32;11.00;99.90
27795;DHT22;15176;50.844;4.412;2023-02-01T18:43:58;11.10;99.90
27795;DHT22;15176;50.844;4.412;2023-02-01T18:46:24;11.10;99.90
27795;DHT22;15176;50.844;4.412;2023-02-01T18:48:51;11.10;99.90
27795;DHT22;15176;50.844;4.412;2023-02-01T18:51:18;10.90;99.90
27795;DHT22;15176;50.844;4.412;2023-02-01T18:53:45;10.90;99.90
27795;DHT22;15176;50.844;4.412;2023-02-01T18:56:12;10.90;99.90